Main page
METAR-TAF:

METAR-TAF

Airports :

Koror, Babelthuap Island, Palau

Roman Tmetuchl International Airport

latitude: 07-22N, longitude: 134-32E, elevation: 54 m

Current weather observation

The report was made 1 hour and 4 minutes ago, at 10:50 UTC
Wind 4 kt from the East
Temperature 27°C
Humidity 89%
Pressure 1008 hPa
Visibility: 22.5 km
Broken clouds at a height of 1600 ft, Cumulonimbus.
Overcast at a height of 30000 ft

METAR: PTRO 201050Z 08004KT 14SM BKN016CB OVC300 27/25 A2977 RMK CB ALQDS

Time: 20:54 (11:54 UTC)

Forecast

The report was made 29 minutes ago, at 11:25 UTC
Forecast valid from 20 at 12 UTC to 21 at 12 UTC
Wind 10 kt from the East
Visibility: 10 km
Scattered clouds at a height of 1600 ft
Scattered clouds at a height of 12000 ft
showers in vicinity
Temporary
from 20 at 12 UTC to 20 at 16 UTC
Broken clouds at a height of 1600 ft
Broken clouds at a height of 12000 ft
light rain showers

TAF: PTRO 201125Z 2012/2112 08010KT P6SM VCSH SCT016 SCT120 TEMPO 2012/2016 -SHRA BKN016 BKN120

Weather observations and forecasts of more than 4000 airports (METAR and TAF reports).

The available stations are represented by yellow and red dots on the map.

Hover mouse over dot to see the name of the station.

Then click to see weather observations and forecasts.

To change the map : click on the green buttons with a black cross to zoom in, on the green button with a dash to zoom out, or on the green arrows for adjacent maps.


METAR-TAF: